Aviation Digital Data Service (ADDS)

Output produced by TAFs form (0046 UTC 26 July 2017)
found at http://aviationweather.gov/adds/tafs/
 
KGJT 252355Z 2600/2624 30006KT P6SM -SHRA VCTS OVC050CB 
     TEMPO 2600/2602 VRB15G25KT 6SM -TSRA OVC040CB 
     FM260200 04006KT P6SM -SHRA VCTS OVC050CB 
     TEMPO 2602/2604 3SM TSRA OVC040CB 
     FM260400 10006KT P6SM VCTS BKN045CB 
     FM261000 15006KT P6SM BKN040 
     FM261900 30008KT P6SM BKN060